sensor_id;sensor_type;location;lat;lon;timestamp;temperature;humidity
1888;DHT22;944;51.574;6.980;2022-11-20T00:01:28;-2.40;99.90
1888;DHT22;944;51.574;6.980;2022-11-20T00:04:00;-2.50;99.90
1888;DHT22;944;51.574;6.980;2022-11-20T00:06:40;-2.50;99.90
1888;DHT22;944;51.574;6.980;2022-11-20T00:13:25;-2.50;99.90
1888;DHT22;944;51.574;6.980;2022-11-20T00:16:15;-2.60;99.90
1888;DHT22;944;51.574;6.980;2022-11-20T00:18:58;-2.60;99.90
1888;DHT22;944;51.574;6.980;2022-11-20T00:21:29;-2.70;99.90
1888;DHT22;944;51.574;6.980;2022-11-20T00:23:57;-2.70;99.90
1888;DHT22;944;51.574;6.980;2022-11-20T00:26:26;-2.70;99.90
1888;DHT22;944;51.574;6.980;2022-11-20T00:29:00;-2.70;99.90
1888;DHT22;944;51.574;6.980;2022-11-20T00:31:30;-2.70;99.90
1888;DHT22;944;51.574;6.980;2022-11-20T00:34:01;-2.60;99.90
1888;DHT22;944;51.574;6.980;2022-11-20T00:51:11;-2.60;99.90
1888;DHT22;944;51.574;6.980;2022-11-20T00:53:44;-2.60;99.90
1888;DHT22;944;51.574;6.980;2022-11-20T00:56:20;-2.70;99.90
1888;DHT22;944;51.574;6.980;2022-11-20T00:59:03;-2.60;99.90
1888;DHT22;944;51.574;6.980;2022-11-20T01:01:34;-2.60;99.90
1888;DHT22;944;51.574;6.980;2022-11-20T01:04:07;-2.60;99.90
1888;DHT22;944;51.574;6.980;2022-11-20T01:06:40;-2.40;99.90
1888;DHT22;944;51.574;6.980;2022-11-20T01:09:12;-2.60;99.90
1888;DHT22;944;51.574;6.980;2022-11-20T01:11:45;-2.60;99.90
1888;DHT22;944;51.574;6.980;2022-11-20T01:14:15;-2.50;99.90
1888;DHT22;944;51.574;6.980;2022-11-20T01:16:45;-2.60;99.90
1888;DHT22;944;51.574;6.980;2022-11-20T01:19:17;-2.70;99.90
1888;DHT22;944;51.574;6.980;2022-11-20T01:21:49;-2.60;99.90
1888;DHT22;944;51.574;6.980;2022-11-20T01:25:05;-2.70;99.90
1888;DHT22;944;51.574;6.980;2022-11-20T03:25:19;-3.00;99.90
1888;DHT22;944;51.574;6.980;2022-11-20T03:35:53;-2.80;99.90
1888;DHT22;944;51.574;6.980;2022-11-20T03:49:43;-2.60;1.00
1888;DHT22;944;51.574;6.980;2022-11-20T03:52:10;-2.40;99.90
1888;DHT22;944;51.574;6.980;2022-11-20T03:54:39;-2.40;1.00
1888;DHT22;944;51.574;6.980;2022-11-20T03:57:09;-2.40;1.00
1888;DHT22;944;51.574;6.980;2022-11-20T04:00:32;-2.30;99.90
1888;DHT22;944;51.574;6.980;2022-11-20T04:03:00;-2.30;1.00
1888;DHT22;944;51.574;6.980;2022-11-20T04:05:56;-2.20;99.90
1888;DHT22;944;51.574;6.980;2022-11-20T04:08:50;-2.20;99.90
1888;DHT22;944;51.574;6.980;2022-11-20T04:11:36;-2.20;99.90
1888;DHT22;944;51.574;6.980;2022-11-20T04:14:17;-2.20;99.90
1888;DHT22;944;51.574;6.980;2022-11-20T04:21:00;-2.40;99.90
1888;DHT22;944;51.574;6.980;2022-11-20T04:23:52;-2.40;99.90
1888;DHT22;944;51.574;6.980;2022-11-20T04:27:23;-2.30;99.90
1888;DHT22;944;51.574;6.980;2022-11-20T04:29:48;-2.30;99.90
1888;DHT22;944;51.574;6.980;2022-11-20T04:32:23;-2.20;99.90
1888;DHT22;944;51.574;6.980;2022-11-20T04:35:05;-2.20;99.90
1888;DHT22;944;51.574;6.980;2022-11-20T04:38:26;-2.10;99.90
1888;DHT22;944;51.574;6.980;2022-11-20T04:41:16;-2.00;99.90
1888;DHT22;944;51.574;6.980;2022-11-20T04:44:48;-2.00;99.90
1888;DHT22;944;51.574;6.980;2022-11-20T04:48:00;-1.90;99.90
1888;DHT22;944;51.574;6.980;2022-11-20T04:50:55;-1.90;99.90
1888;DHT22;944;51.574;6.980;2022-11-20T04:57:35;-1.80;99.90
1888;DHT22;944;51.574;6.980;2022-11-20T05:00:14;-1.80;99.90
1888;DHT22;944;51.574;6.980;2022-11-20T05:33:54;-2.20;99.90
1888;DHT22;944;51.574;6.980;2022-11-20T05:58:32;-2.20;99.90
1888;DHT22;944;51.574;6.980;2022-11-20T09:42:44;0.80;99.90
1888;DHT22;944;51.574;6.980;2022-11-20T09:45:23;0.90;99.90
1888;DHT22;944;51.574;6.980;2022-11-20T09:48:16;0.90;99.90
1888;DHT22;944;51.574;6.980;2022-11-20T09:50:55;0.90;99.90
1888;DHT22;944;51.574;6.980;2022-11-20T09:53:33;0.90;99.90
1888;DHT22;944;51.574;6.980;2022-11-20T10:10:38;1.40;99.90
1888;DHT22;944;51.574;6.980;2022-11-20T10:13:20;1.40;99.90
1888;DHT22;944;51.574;6.980;2022-11-20T10:16:05;1.60;99.90
1888;DHT22;944;51.574;6.980;2022-11-20T10:18:47;1.80;99.90
1888;DHT22;944;51.574;6.980;2022-11-20T10:21:30;2.00;99.90
1888;DHT22;944;51.574;6.980;2022-11-20T10:24:39;2.10;99.90
1888;DHT22;944;51.574;6.980;2022-11-20T10:27:32;2.30;99.90
1888;DHT22;944;51.574;6.980;2022-11-20T10:30:12;2.40;99.90
1888;DHT22;944;51.574;6.980;2022-11-20T10:32:42;2.50;99.90
1888;DHT22;944;51.574;6.980;2022-11-20T10:35:20;2.50;99.90
1888;DHT22;944;51.574;6.980;2022-11-20T10:37:53;2.50;99.90
1888;DHT22;944;51.574;6.980;2022-11-20T10:44:26;2.50;99.90
1888;DHT22;944;51.574;6.980;2022-11-20T10:47:25;2.60;99.90
1888;DHT22;944;51.574;6.980;2022-11-20T10:51:15;2.60;99.90
1888;DHT22;944;51.574;6.980;2022-11-20T11:06:08;3.00;99.90
1888;DHT22;944;51.574;6.980;2022-11-20T22:03:48;3.50;99.90
1888;DHT22;944;51.574;6.980;2022-11-20T22:06:37;3.50;99.90
1888;DHT22;944;51.574;6.980;2022-11-20T22:16:16;3.50;99.90
1888;DHT22;944;51.574;6.980;2022-11-20T22:51:26;3.20;99.90
1888;DHT22;944;51.574;6.980;2022-11-20T22:54:21;3.30;99.90
